createdAt,value
2023-05-25T00:00:16.250Z,101166.75
2023-05-25T00:02:44.751Z,101163.28
2023-05-25T00:05:11.541Z,101164.25
2023-05-25T00:07:38.994Z,101157.06
2023-05-25T00:10:06.920Z,101155.16
2023-05-25T00:12:34.378Z,101161.19
2023-05-25T00:15:01.266Z,101162.28
2023-05-25T00:17:30.105Z,101161.00
2023-05-25T00:19:58.195Z,101168.78
2023-05-25T00:22:29.164Z,101165.81
2023-05-25T00:24:56.118Z,101168.91
2023-05-25T00:27:23.078Z,101159.88
2023-05-25T00:29:49.756Z,101167.09
2023-05-25T00:32:16.574Z,101163.31
2023-05-25T00:34:43.372Z,101167.16
2023-05-25T00:37:10.041Z,101161.31
2023-05-25T00:39:36.727Z,101157.03
2023-05-25T00:42:03.952Z,101162.38
2023-05-25T00:44:32.187Z,101162.78
2023-05-25T00:46:59.880Z,101156.13
2023-05-25T00:49:28.372Z,101147.41
2023-05-25T00:51:55.156Z,101153.16
2023-05-25T00:54:22.709Z,101154.31
2023-05-25T00:56:57.541Z,101151.63
2023-05-25T00:59:37.011Z,101145.50
2023-05-25T01:02:07.695Z,101149.91
2023-05-25T01:04:38.411Z,101158.72
2023-05-25T01:07:07.075Z,101145.28
2023-05-25T01:09:35.529Z,101150.94
2023-05-25T01:12:03.958Z,101145.97
2023-05-25T01:14:32.784Z,101144.59
2023-05-25T01:16:59.924Z,101150.34
2023-05-25T01:19:27.020Z,101152.31
2023-05-25T01:22:04.231Z,101148.78
2023-05-25T01:24:46.467Z,101143.59
2023-05-25T01:27:18.511Z,101142.72
2023-05-25T01:29:46.808Z,101140.66
2023-05-25T01:32:14.631Z,101133.53
2023-05-25T01:34:43.507Z,101151.38
2023-05-25T01:37:13.539Z,101145.88
2023-05-25T01:39:43.784Z,101150.44
2023-05-25T01:42:10.650Z,101154.06
2023-05-25T01:44:38.971Z,101153.03
2023-05-25T01:47:29.529Z,101151.06
2023-05-25T01:50:13.561Z,101159.19
2023-05-25T01:52:45.676Z,101156.94
2023-05-25T01:55:15.075Z,101162.84
2023-05-25T01:57:45.717Z,101150.06
2023-05-25T02:00:13.551Z,101156.84
2023-05-25T02:02:44.017Z,101157.91
2023-05-25T02:05:11.669Z,101165.84
2023-05-25T02:07:38.401Z,101160.75
2023-05-25T02:10:05.574Z,101164.41
2023-05-25T02:12:32.276Z,101170.69
2023-05-25T02:14:58.950Z,101170.81
2023-05-25T02:17:28.076Z,101164.66
2023-05-25T02:19:54.965Z,101162.09
2023-05-25T02:22:22.807Z,101157.66
2023-05-25T02:24:49.474Z,101161.22
2023-05-25T02:27:16.205Z,101156.63
2023-05-25T02:29:43.163Z,101160.16
2023-05-25T02:32:09.890Z,101163.91
2023-05-25T02:34:36.559Z,101156.22
2023-05-25T02:37:03.272Z,101172.38
2023-05-25T02:39:30.008Z,101175.16
2023-05-25T02:41:56.692Z,101174.53
2023-05-25T02:44:23.356Z,101161.31
2023-05-25T02:46:50.099Z,101165.91
2023-05-25T02:49:16.890Z,101183.91
2023-05-25T02:51:43.537Z,101164.72
2023-05-25T02:54:10.267Z,101177.50
2023-05-25T02:56:37.189Z,101175.94
2023-05-25T02:59:03.975Z,101175.19
2023-05-25T03:01:31.857Z,101184.16
2023-05-25T03:03:58.708Z,101193.34
2023-05-25T03:06:26.344Z,101182.63
2023-05-25T03:08:53.231Z,101185.97
2023-05-25T03:11:19.914Z,101189.53
2023-05-25T03:13:46.586Z,101183.56
2023-05-25T03:16:13.289Z,101181.22
2023-05-25T03:18:40.052Z,101187.75
2023-05-25T03:21:06.852Z,101186.31
2023-05-25T03:23:33.543Z,101181.97
2023-05-25T03:26:00.437Z,101166.94
2023-05-25T03:28:27.174Z,101172.44
2023-05-25T03:30:53.834Z,101169.00
2023-05-25T03:33:20.510Z,101178.19
2023-05-25T03:35:47.191Z,101176.41
2023-05-25T03:38:13.909Z,101186.09
2023-05-25T03:40:40.580Z,101181.63
2023-05-25T03:43:07.271Z,101189.56
2023-05-25T03:45:33.929Z,101196.97
2023-05-25T03:48:00.958Z,101189.97
2023-05-25T03:50:27.786Z,101185.75
2023-05-25T03:52:54.485Z,101184.09
2023-05-25T03:55:21.212Z,101193.25
2023-05-25T03:57:47.875Z,101197.03
2023-05-25T04:00:15.053Z,101188.16
2023-05-25T04:02:41.896Z,101194.53
2023-05-25T04:05:09.086Z,101191.78
2023-05-25T04:07:37.126Z,101188.47
2023-05-25T04:10:04.760Z,101194.69
2023-05-25T04:12:32.478Z,101202.97
2023-05-25T04:14:59.405Z,101198.81
2023-05-25T04:17:26.195Z,101204.25
2023-05-25T04:19:52.903Z,101206.13
2023-05-25T04:22:19.739Z,101217.63
2023-05-25T04:24:46.751Z,101210.38
2023-05-25T04:27:14.451Z,101213.84
2023-05-25T04:29:43.973Z,101220.00
2023-05-25T04:32:10.772Z,101221.97
2023-05-25T04:34:37.800Z,101224.88
2023-05-25T04:37:05.730Z,101228.66
2023-05-25T04:39:32.940Z,101224.47
2023-05-25T04:42:01.679Z,101225.38
2023-05-25T04:44:29.969Z,101234.16
2023-05-25T04:46:57.016Z,101233.16
2023-05-25T04:49:23.765Z,101243.59
2023-05-25T04:51:51.590Z,101230.22
2023-05-25T04:54:18.490Z,101235.41
2023-05-25T04:56:45.303Z,101242.41
2023-05-25T04:59:12.140Z,101248.72
2023-05-25T05:01:41.024Z,101241.72
2023-05-25T05:04:08.531Z,101242.84
2023-05-25T05:06:36.583Z,101239.19
2023-05-25T05:09:03.680Z,101246.97
2023-05-25T05:11:30.490Z,101235.25
2023-05-25T05:13:57.340Z,101236.81
2023-05-25T05:16:24.023Z,101236.38
2023-05-25T05:18:50.767Z,101237.13
2023-05-25T05:21:17.503Z,101249.44
2023-05-25T05:23:44.319Z,101249.19
2023-05-25T05:26:11.809Z,101239.28
2023-05-25T05:28:38.540Z,101253.53
2023-05-25T05:31:05.471Z,101254.44
2023-05-25T05:33:32.202Z,101264.38
2023-05-25T05:36:00.090Z,101258.88
2023-05-25T05:38:27.793Z,101259.03
2023-05-25T05:40:54.452Z,101259.09
2023-05-25T05:43:21.132Z,101270.59
2023-05-25T05:45:47.803Z,101272.25
2023-05-25T05:48:14.497Z,101269.41
2023-05-25T05:50:42.367Z,101263.81
2023-05-25T05:53:10.054Z,101267.78
2023-05-25T05:55:36.932Z,101274.59
2023-05-25T05:58:03.730Z,101274.22
2023-05-25T06:00:30.566Z,101282.03
2023-05-25T06:02:57.491Z,101293.13
2023-05-25T06:05:24.336Z,101292.47
2023-05-25T06:07:51.886Z,101291.34
2023-05-25T06:10:18.591Z,101303.28
2023-05-25T06:12:45.236Z,101305.81
2023-05-25T06:15:12.041Z,101321.56
2023-05-25T06:17:38.766Z,101321.28
2023-05-25T06:20:06.805Z,101324.84
2023-05-25T06:22:33.624Z,101340.00
2023-05-25T06:25:02.379Z,101331.94
2023-05-25T06:27:29.049Z,101346.06
2023-05-25T06:29:55.727Z,101340.59
2023-05-25T06:32:22.461Z,101352.00
2023-05-25T06:34:49.189Z,101352.16
2023-05-25T06:37:15.875Z,101359.34
2023-05-25T06:39:43.332Z,101365.03
2023-05-25T06:42:11.706Z,101359.88
2023-05-25T06:44:38.436Z,101367.03
2023-05-25T06:47:05.655Z,101369.72
2023-05-25T06:49:32.829Z,101363.31
2023-05-25T06:51:59.578Z,101369.47
2023-05-25T06:54:26.840Z,101375.44
2023-05-25T06:56:53.677Z,101368.94
2023-05-25T06:59:20.360Z,101386.84
2023-05-25T07:01:47.595Z,101386.78
2023-05-25T07:04:14.517Z,101400.44
2023-05-25T07:06:41.223Z,101390.94
2023-05-25T07:09:07.932Z,101393.59
2023-05-25T07:11:34.684Z,101403.22
2023-05-25T07:14:01.601Z,101400.38
2023-05-25T07:16:28.387Z,101407.28
2023-05-25T07:18:55.207Z,101412.38
2023-05-25T07:21:21.906Z,101406.97
2023-05-25T07:23:48.651Z,101416.13
2023-05-25T07:26:15.819Z,101401.84
2023-05-25T07:28:42.512Z,101407.81
2023-05-25T07:31:11.154Z,101406.00
2023-05-25T07:33:37.828Z,101412.66
2023-05-25T07:36:04.799Z,101418.16
2023-05-25T07:38:31.450Z,101417.22
2023-05-25T07:40:58.093Z,101420.53
2023-05-25T07:43:24.962Z,101427.56
2023-05-25T07:45:51.714Z,101429.91
2023-05-25T07:48:18.428Z,101436.88
2023-05-25T07:50:46.129Z,101446.50
2023-05-25T07:53:12.849Z,101448.09
2023-05-25T07:55:39.537Z,101460.19
2023-05-25T07:58:07.590Z,101457.25
2023-05-25T08:00:34.406Z,101457.09
2023-05-25T08:03:02.604Z,101471.09
2023-05-25T08:05:29.625Z,101474.50
2023-05-25T08:07:56.392Z,101463.44
2023-05-25T08:10:23.793Z,101476.53
2023-05-25T08:12:52.271Z,101477.91
2023-05-25T08:15:19.412Z,101495.41
2023-05-25T08:17:46.647Z,101498.59
2023-05-25T08:20:14.552Z,101501.66
2023-05-25T08:22:41.309Z,101504.94
2023-05-25T08:25:08.400Z,101509.19
2023-05-25T08:27:36.240Z,101504.56
2023-05-25T08:30:07.045Z,101504.41
2023-05-25T08:32:33.950Z,101515.75
2023-05-25T08:35:02.010Z,101513.66
2023-05-25T08:37:29.366Z,101506.28
2023-05-25T08:39:56.089Z,101506.13
2023-05-25T08:42:23.936Z,101504.09
2023-05-25T08:44:50.664Z,101506.56
2023-05-25T08:47:17.828Z,101508.97
2023-05-25T08:49:45.375Z,101509.53
2023-05-25T08:52:15.011Z,101502.88
2023-05-25T08:54:45.161Z,101500.91
2023-05-25T08:57:24.134Z,101505.38
2023-05-25T08:59:57.404Z,101519.78
2023-05-25T09:02:53.574Z,101521.34
2023-05-25T09:05:20.993Z,101527.13
2023-05-25T09:07:48.755Z,101524.69
2023-05-25T09:10:15.813Z,101538.19
2023-05-25T09:12:43.791Z,101540.78
2023-05-25T09:15:11.200Z,101540.59
2023-05-25T09:17:38.502Z,101551.84
2023-05-25T09:20:06.158Z,101545.38
2023-05-25T09:22:32.921Z,101556.69
2023-05-25T09:25:00.601Z,101556.28
2023-05-25T09:27:27.255Z,101558.53
2023-05-25T09:29:54.072Z,101552.00
2023-05-25T09:32:21.166Z,101561.69
2023-05-25T09:34:48.028Z,101561.16
2023-05-25T09:37:19.478Z,101547.16
2023-05-25T09:39:47.959Z,101552.19
2023-05-25T09:42:14.807Z,101563.63
2023-05-25T09:44:42.907Z,101564.69
2023-05-25T09:47:10.176Z,101564.31
2023-05-25T09:49:37.317Z,101558.56
2023-05-25T09:52:04.221Z,101567.81
2023-05-25T09:54:31.332Z,101567.31
2023-05-25T09:56:58.008Z,101572.59
2023-05-25T09:59:24.716Z,101575.81
2023-05-25T10:01:55.049Z,101577.81
2023-05-25T10:04:21.870Z,101581.13
2023-05-25T10:06:52.055Z,101579.94
2023-05-25T10:09:20.150Z,101582.16
2023-05-25T10:11:48.238Z,101579.94
2023-05-25T10:14:27.966Z,101589.06
2023-05-25T10:16:57.996Z,101585.22
2023-05-25T10:19:37.788Z,101586.19
2023-05-25T10:22:13.164Z,101586.47
2023-05-25T10:24:56.467Z,101590.59
2023-05-25T10:27:27.913Z,101594.16
2023-05-25T10:29:57.412Z,101585.22
2023-05-25T10:32:24.966Z,101593.50
2023-05-25T10:34:53.446Z,101582.16
2023-05-25T10:37:20.895Z,101590.41
2023-05-25T10:39:49.956Z,101580.38
2023-05-25T10:42:18.694Z,101568.13
2023-05-25T10:44:46.078Z,101574.47
2023-05-25T10:47:13.306Z,101582.75
2023-05-25T10:50:03.103Z,101581.59
2023-05-25T10:52:31.754Z,101587.41
2023-05-25T10:55:02.120Z,101579.31
2023-05-25T10:57:29.080Z,101582.97
2023-05-25T11:00:02.139Z,101576.19
2023-05-25T11:02:29.655Z,101582.50
2023-05-25T11:05:21.311Z,101577.03
2023-05-25T11:07:57.921Z,101581.28
2023-05-25T11:10:54.133Z,101586.50
2023-05-25T11:13:38.744Z,101572.44
2023-05-25T11:16:34.566Z,101572.44
2023-05-25T11:19:01.972Z,101584.66
2023-05-25T11:21:29.032Z,101582.00
2023-05-25T11:24:02.853Z,101581.56
2023-05-25T11:26:31.188Z,101581.69
2023-05-25T11:28:59.165Z,101587.47
2023-05-25T11:31:36.429Z,101583.88
2023-05-25T11:34:06.078Z,101584.59
2023-05-25T11:36:35.819Z,101581.78
2023-05-25T11:39:13.880Z,101575.31
2023-05-25T11:41:55.493Z,101577.47
2023-05-25T11:44:30.365Z,101583.16
2023-05-25T11:47:01.850Z,101573.34
2023-05-25T11:49:28.968Z,101577.81
2023-05-25T11:51:57.609Z,101586.28
2023-05-25T11:54:28.631Z,101593.41
2023-05-25T11:56:59.640Z,101591.84
2023-05-25T11:59:29.841Z,101586.91
2023-05-25T12:01:59.754Z,101587.09
2023-05-25T12:04:26.618Z,101588.53
2023-05-25T12:06:53.631Z,101588.63
2023-05-25T12:09:24.284Z,101584.53
2023-05-25T12:11:51.684Z,101589.91
2023-05-25T12:14:18.610Z,101581.22
2023-05-25T12:16:45.760Z,101575.09
2023-05-25T12:19:13.739Z,101571.53
2023-05-25T12:21:41.486Z,101573.34
2023-05-25T12:24:09.911Z,101568.81
2023-05-25T12:26:48.007Z,101567.28
2023-05-25T12:29:15.153Z,101579.38
2023-05-25T12:31:41.809Z,101581.50
2023-05-25T12:34:14.318Z,101572.09
2023-05-25T12:36:43.761Z,101576.63
2023-05-25T12:39:12.280Z,101583.53
2023-05-25T12:41:47.975Z,101578.50
2023-05-25T12:44:17.668Z,101574.78
2023-05-25T12:46:44.701Z,101580.34
2023-05-25T12:49:31.549Z,101572.41
2023-05-25T12:52:01.191Z,101578.63
2023-05-25T12:54:38.459Z,101580.53
2023-05-25T12:57:06.825Z,101573.41
2023-05-25T12:59:35.245Z,101577.81
2023-05-25T13:02:02.950Z,101578.47
2023-05-25T13:04:29.749Z,101575.41
2023-05-25T13:06:56.426Z,101588.44
2023-05-25T13:09:29.387Z,101579.72
2023-05-25T13:11:57.135Z,101579.19
2023-05-25T13:14:25.179Z,101567.91
2023-05-25T13:16:53.202Z,101571.63
2023-05-25T13:19:22.152Z,101581.78
2023-05-25T13:21:52.080Z,101586.19
2023-05-25T13:24:21.942Z,101582.72
2023-05-25T13:26:50.881Z,101576.22
2023-05-25T13:29:18.312Z,101582.53
2023-05-25T13:31:45.252Z,101581.53
2023-05-25T13:34:12.149Z,101589.56
2023-05-25T13:36:38.879Z,101584.50
2023-05-25T13:39:05.621Z,101578.91
2023-05-25T13:41:32.377Z,101583.47
2023-05-25T13:43:59.300Z,101582.16
2023-05-25T13:46:34.721Z,101580.47
2023-05-25T13:49:03.503Z,101577.53
2023-05-25T13:51:30.692Z,101578.19
2023-05-25T13:53:57.420Z,101589.16
2023-05-25T13:56:24.137Z,101586.19
2023-05-25T13:58:50.963Z,101583.16
2023-05-25T14:01:17.728Z,101577.59
2023-05-25T14:03:44.648Z,101586.09
2023-05-25T14:06:11.566Z,101584.69
2023-05-25T14:08:38.606Z,101576.66
2023-05-25T14:11:05.594Z,101576.66
2023-05-25T14:13:33.544Z,101570.97
2023-05-25T14:16:00.268Z,101569.81
2023-05-25T14:18:27.025Z,101570.53
2023-05-25T14:20:53.718Z,101575.06
2023-05-25T14:23:21.122Z,101572.59
2023-05-25T14:25:48.867Z,101575.88
2023-05-25T14:28:15.934Z,101560.41
2023-05-25T14:30:42.613Z,101561.31
2023-05-25T14:33:14.178Z,101560.81
2023-05-25T14:35:42.960Z,101567.00
2023-05-25T14:38:10.395Z,101570.56
2023-05-25T14:40:37.096Z,101556.84
2023-05-25T14:43:03.957Z,101557.94
2023-05-25T14:45:30.658Z,101559.28
2023-05-25T14:48:08.289Z,101558.94
2023-05-25T14:50:44.144Z,101556.84
2023-05-25T14:53:11.071Z,101551.16
2023-05-25T14:55:37.769Z,101549.34
2023-05-25T14:58:04.451Z,101543.41
2023-05-25T15:00:31.136Z,101552.38
2023-05-25T15:02:58.215Z,101557.03
2023-05-25T15:05:25.066Z,101554.63
2023-05-25T15:07:51.731Z,101544.97
2023-05-25T15:10:18.464Z,101553.69
2023-05-25T15:12:45.144Z,101552.66
2023-05-25T15:15:12.361Z,101554.63
2023-05-25T15:17:39.120Z,101556.59
2023-05-25T15:20:06.532Z,101550.81
2023-05-25T15:22:33.230Z,101562.41
2023-05-25T15:25:02.249Z,101551.06
2023-05-25T15:27:29.219Z,101557.44
2023-05-25T15:29:55.897Z,101562.19
2023-05-25T15:32:22.544Z,101569.59
2023-05-25T15:34:49.234Z,101563.34
2023-05-25T15:37:15.876Z,101569.44
2023-05-25T15:39:42.600Z,101569.28
2023-05-25T15:42:09.335Z,101559.31
2023-05-25T15:44:36.089Z,101559.63
2023-05-25T15:47:02.824Z,101551.75
2023-05-25T15:49:29.496Z,101548.97
2023-05-25T15:51:56.161Z,101546.84
2023-05-25T15:54:22.848Z,101548.25
2023-05-25T15:56:49.588Z,101560.81
2023-05-25T15:59:16.290Z,101553.19
2023-05-25T16:01:43.020Z,101552.16
2023-05-25T16:04:09.871Z,101551.16
2023-05-25T16:06:36.981Z,101559.56
2023-05-25T16:09:04.378Z,101559.28
2023-05-25T16:11:33.120Z,101554.75
2023-05-25T16:13:59.788Z,101551.69
2023-05-25T16:16:26.508Z,101556.44
2023-05-25T16:18:53.309Z,101550.16
2023-05-25T16:21:20.060Z,101551.31
2023-05-25T16:23:46.803Z,101549.47
2023-05-25T16:26:13.468Z,101545.03
2023-05-25T16:28:40.262Z,101548.00
2023-05-25T16:31:07.345Z,101539.53
2023-05-25T16:33:34.480Z,101550.41
2023-05-25T16:36:01.414Z,101544.16
2023-05-25T16:38:28.183Z,101549.19
2023-05-25T16:40:54.919Z,101548.75
2023-05-25T16:43:25.093Z,101548.06
2023-05-25T16:45:52.529Z,101555.06
2023-05-25T16:48:21.573Z,101557.31
2023-05-25T16:50:49.824Z,101558.19
2023-05-25T16:53:16.493Z,101567.66
2023-05-25T16:55:43.386Z,101547.50
2023-05-25T16:58:10.343Z,101544.34
2023-05-25T17:00:37.000Z,101551.84
2023-05-25T17:03:03.796Z,101538.97
2023-05-25T17:05:30.661Z,101547.13
2023-05-25T17:07:57.372Z,101536.81
2023-05-25T17:10:24.084Z,101543.53
2023-05-25T17:12:51.386Z,101542.69
2023-05-25T17:15:18.094Z,101529.72
2023-05-25T17:17:44.835Z,101538.97
2023-05-25T17:20:11.874Z,101536.25
2023-05-25T17:22:38.910Z,101539.31
2023-05-25T17:25:06.604Z,101529.91
2023-05-25T17:27:33.587Z,101528.66
2023-05-25T17:30:00.392Z,101524.63
2023-05-25T17:32:27.152Z,101530.63
2023-05-25T17:34:53.954Z,101539.81
2023-05-25T17:37:21.235Z,101542.13
2023-05-25T17:39:48.057Z,101536.41
2023-05-25T17:42:14.769Z,101532.63
2023-05-25T17:44:42.663Z,101534.97
2023-05-25T17:47:11.075Z,101535.75
2023-05-25T17:49:38.116Z,101543.94
2023-05-25T17:52:05.044Z,101530.91
2023-05-25T17:54:31.693Z,101544.75
2023-05-25T17:56:58.390Z,101542.69
2023-05-25T17:59:25.168Z,101542.09
2023-05-25T18:01:51.929Z,101541.97
2023-05-25T18:04:19.706Z,101543.38
2023-05-25T18:06:49.828Z,101543.16
2023-05-25T18:09:16.925Z,101536.41
2023-05-25T18:11:43.591Z,101535.75
2023-05-25T18:14:10.327Z,101533.56
2023-05-25T18:16:41.543Z,101542.88
2023-05-25T18:19:09.564Z,101547.81
2023-05-25T18:21:40.537Z,101551.91
2023-05-25T18:24:08.435Z,101555.47
2023-05-25T18:26:36.137Z,101563.63
2023-05-25T18:29:03.144Z,101571.53
2023-05-25T18:31:32.308Z,101578.28
2023-05-25T18:33:59.888Z,101575.97
2023-05-25T18:36:26.790Z,101577.13
2023-05-25T18:38:53.444Z,101571.34
2023-05-25T18:41:21.604Z,101571.78
2023-05-25T18:43:49.185Z,101570.34
2023-05-25T18:46:16.457Z,101569.78
2023-05-25T18:48:43.233Z,101577.31
2023-05-25T18:51:09.914Z,101585.72
2023-05-25T18:53:36.620Z,101584.13
2023-05-25T18:56:03.599Z,101573.75
2023-05-25T18:58:30.256Z,101566.03
2023-05-25T19:00:56.923Z,101561.88
2023-05-25T19:03:23.672Z,101559.56
2023-05-25T19:05:50.389Z,101551.78
2023-05-25T19:08:17.070Z,101547.94
2023-05-25T19:10:43.804Z,101548.34
2023-05-25T19:13:10.492Z,101539.72
2023-05-25T19:15:37.272Z,101531.97
2023-05-25T19:18:04.523Z,101532.38
2023-05-25T19:20:32.863Z,101542.53
2023-05-25T19:22:59.946Z,101547.16
2023-05-25T19:25:26.806Z,101540.34
2023-05-25T19:27:53.718Z,101540.59
2023-05-25T19:30:20.520Z,101544.25
2023-05-25T19:32:47.254Z,101538.31
2023-05-25T19:35:14.161Z,101541.25
2023-05-25T19:37:41.348Z,101535.44
2023-05-25T19:40:09.599Z,101521.72
2023-05-25T19:42:36.520Z,101523.00
2023-05-25T19:45:03.816Z,101526.84
2023-05-25T19:47:31.521Z,101524.50
2023-05-25T19:49:58.275Z,101522.06
2023-05-25T19:52:24.935Z,101525.59
2023-05-25T19:54:51.624Z,101513.19
2023-05-25T19:57:20.111Z,101523.88
2023-05-25T19:59:50.051Z,101521.44
2023-05-25T20:02:17.081Z,101518.22
2023-05-25T20:04:43.962Z,101522.84
2023-05-25T20:07:10.778Z,101513.91
2023-05-25T20:09:38.824Z,101516.66
2023-05-25T20:12:06.518Z,101502.56
2023-05-25T20:14:35.973Z,101500.97
2023-05-25T20:17:03.022Z,101496.69
2023-05-25T20:19:29.773Z,101507.50
2023-05-25T20:21:57.976Z,101504.91
2023-05-25T20:24:24.713Z,101503.22
2023-05-25T20:26:56.963Z,101501.50
2023-05-25T20:29:23.987Z,101490.19
2023-05-25T20:31:50.984Z,101494.78
2023-05-25T20:34:18.105Z,101494.81
2023-05-25T20:36:45.085Z,101492.16
2023-05-25T20:39:11.866Z,101486.81
2023-05-25T20:41:38.525Z,101479.75
2023-05-25T20:44:09.003Z,101487.88
2023-05-25T20:46:36.201Z,101477.31
2023-05-25T20:49:03.623Z,101480.84
2023-05-25T20:51:31.229Z,101488.84
2023-05-25T20:53:57.906Z,101479.31
2023-05-25T20:56:26.933Z,101462.56
2023-05-25T20:58:53.704Z,101458.22
2023-05-25T21:01:20.564Z,101462.69
2023-05-25T21:03:47.354Z,101456.41
2023-05-25T21:06:14.481Z,101462.50
2023-05-25T21:08:41.188Z,101460.78
2023-05-25T21:11:07.880Z,101450.16
2023-05-25T21:13:34.614Z,101452.94
2023-05-25T21:16:01.356Z,101446.63
2023-05-25T21:18:28.073Z,101450.22
2023-05-25T21:20:54.823Z,101441.41
2023-05-25T21:23:21.645Z,101443.28
2023-05-25T21:25:48.669Z,101445.13
2023-05-25T21:28:15.532Z,101438.84
2023-05-25T21:30:42.195Z,101440.53
2023-05-25T21:33:09.018Z,101431.75
2023-05-25T21:35:35.710Z,101444.25
2023-05-25T21:38:02.429Z,101438.06
2023-05-25T21:40:29.134Z,101434.34
2023-05-25T21:42:55.896Z,101440.59
2023-05-25T21:45:22.565Z,101437.94
2023-05-25T21:47:49.290Z,101439.03
2023-05-25T21:50:16.313Z,101436.56
2023-05-25T21:52:42.970Z,101439.38
2023-05-25T21:55:09.894Z,101427.06
2023-05-25T21:57:36.827Z,101427.84
2023-05-25T22:00:06.281Z,101423.38
2023-05-25T22:02:33.055Z,101419.06
2023-05-25T22:04:59.743Z,101419.19
2023-05-25T22:07:26.542Z,101407.81
2023-05-25T22:09:53.217Z,101411.41
2023-05-25T22:12:20.358Z,101411.47
2023-05-25T22:14:47.083Z,101405.47
2023-05-25T22:17:15.300Z,101404.56
2023-05-25T22:19:44.817Z,101393.25
2023-05-25T22:22:11.752Z,101397.09
2023-05-25T22:24:38.414Z,101390.91
2023-05-25T22:27:06.110Z,101395.47
2023-05-25T22:29:32.723Z,101379.63
2023-05-25T22:31:59.396Z,101386.91
2023-05-25T22:34:26.106Z,101383.44
2023-05-25T22:36:52.816Z,101378.31
2023-05-25T22:39:19.471Z,101374.78
2023-05-25T22:41:46.230Z,101366.00
2023-05-25T22:44:12.887Z,101374.88
2023-05-25T22:46:39.609Z,101369.75
2023-05-25T22:49:06.338Z,101369.88
2023-05-25T22:51:33.004Z,101362.81
2023-05-25T22:53:59.660Z,101368.34
2023-05-25T22:56:27.387Z,101361.28
2023-05-25T22:58:54.105Z,101359.59
2023-05-25T23:01:20.802Z,101342.91
2023-05-25T23:03:47.515Z,101344.78
2023-05-25T23:06:14.377Z,101347.72
2023-05-25T23:08:41.104Z,101330.81
2023-05-25T23:11:07.830Z,101325.59
2023-05-25T23:13:34.470Z,101330.25
2023-05-25T23:16:01.163Z,101331.91
2023-05-25T23:18:27.857Z,101327.41
2023-05-25T23:20:54.560Z,101327.44
2023-05-25T23:23:21.570Z,101324.78
2023-05-25T23:25:48.234Z,101323.16
2023-05-25T23:28:14.890Z,101314.31
2023-05-25T23:30:41.581Z,101319.69
2023-05-25T23:33:08.559Z,101310.91
2023-05-25T23:35:35.474Z,101312.72
2023-05-25T23:38:02.130Z,101304.75
2023-05-25T23:40:31.576Z,101319.03
2023-05-25T23:42:58.316Z,101313.75
2023-05-25T23:45:24.985Z,101316.31
2023-05-25T23:47:51.824Z,101318.97
2023-05-25T23:50:18.642Z,101318.00
2023-05-25T23:52:46.385Z,101314.50
2023-05-25T23:55:13.855Z,101308.31
2023-05-25T23:57:40.808Z,101315.53
